Time;durP1;ratioP1;P1;durP2;ratioP2;P2;SDS_P1;SDS_P2;PMS_P1;PMS_P2;Temp;Humidity;BMP_temperature;BMP_pressure;BME280_temperature;BME280_humidity;BME280_pressure;Samples;Min_cycle;Max_cycle;Signal;HPM_P1;HPM_P2
2022/08/11 00:00:11;;;;;;;2.00;1.80;;;19.20;81.80;;;;;;5019365;28;20222;-61
2022/08/11 00:02:40;;;;;;;6.50;2.27;;;19.10;82.40;;;;;;5009075;28;20226;-61
2022/08/11 00:05:18;;;;;;;3.30;1.83;;;19.10;83.40;;;;;;5029825;28;20192;-61
2022/08/11 00:07:53;;;;;;;3.60;1.90;;;19.10;84.90;;;;;;5012508;28;20207;-61
2022/08/11 00:10:22;;;;;;;2.00;1.90;;;19.00;86.00;;;;;;5015894;28;20171;-61
2022/08/11 00:12:56;;;;;;;5.23;1.70;;;19.00;87.00;;;;;;5014480;28;20837;-60
2022/08/11 00:15:24;;;;;;;2.37;1.80;;;18.90;88.00;;;;;;5011961;28;20187;-61
2022/08/11 00:17:57;;;;;;;1.70;1.60;;;18.90;89.00;;;;;;5015264;28;20643;-61
2022/08/11 00:20:32;;;;;;;2.10;2.00;;;18.80;90.10;;;;;;5013466;28;20184;-61
2022/08/11 00:23:09;;;;;;;3.83;1.83;;;18.80;90.70;;;;;;5015365;28;20205;-62
2022/08/11 00:25:41;;;;;;;1.80;1.70;;;18.70;91.10;;;;;;5026409;28;20206;-61
2022/08/11 00:28:26;;;;;;;2.10;2.00;;;18.60;91.70;;;;;;5010432;28;20554;-67
2022/08/11 00:30:54;;;;;;;2.30;2.10;;;18.60;92.60;;;;;;5010259;28;20194;-66
2022/08/11 00:33:25;;;;;;;3.53;2.13;;;18.60;93.40;;;;;;5009994;28;20270;-68
2022/08/11 00:35:55;;;;;;;2.13;1.83;;;18.60;93.60;;;;;;5006326;28;20514;-60
2022/08/11 00:38:24;;;;;;;3.43;1.47;;;18.60;94.50;;;;;;5021307;28;20190;-61
2022/08/11 00:41:10;;;;;;;2.20;2.00;;;18.60;94.30;;;;;;5021015;28;20310;-60
2022/08/11 00:43:58;;;;;;;2.20;2.10;;;18.60;95.10;;;;;;5010423;28;20180;-60
2022/08/11 00:46:32;;;;;;;2.23;1.77;;;18.60;95.30;;;;;;5012874;28;20226;-60
2022/08/11 00:49:11;;;;;;;4.77;2.30;;;18.60;96.00;;;;;;5019037;28;20194;-60
2022/08/11 00:52:08;;;;;;;7.43;2.07;;;18.50;95.90;;;;;;5014124;28;20215;-61
2022/08/11 00:55:14;;;;;;;3.97;2.10;;;18.40;96.70;;;;;;5014375;28;20216;-61
2022/08/11 00:58:13;;;;;;;2.90;1.83;;;18.40;97.00;;;;;;5014976;28;20200;-60
2022/08/11 01:01:04;;;;;;;2.43;2.23;;;18.30;97.30;;;;;;5020128;28;20269;-62
2022/08/11 01:03:51;;;;;;;2.03;1.77;;;18.20;97.50;;;;;;4922950;28;20223;-62
2022/08/11 01:06:43;;;;;;;3.63;1.93;;;18.20;98.00;;;;;;5032103;28;20207;-62
2022/08/11 01:09:27;;;;;;;2.10;2.00;;;18.10;98.20;;;;;;5031089;28;20666;-61
2022/08/11 01:12:27;;;;;;;2.93;1.73;;;18.10;98.50;;;;;;5011774;28;20678;-61
2022/08/11 01:15:17;;;;;;;4.93;2.13;;;18.10;98.70;;;;;;5015590;28;20197;-60
2022/08/11 01:18:21;;;;;;;3.23;1.90;;;18.00;99.40;;;;;;5014639;28;20203;-60
2022/08/11 01:21:02;;;;;;;5.33;1.80;;;18.00;99.80;;;;;;5018453;28;20673;-60
2022/08/11 01:23:55;;;;;;;2.00;1.80;;;18.00;99.90;;;;;;5015019;28;20188;-60
2022/08/11 01:26:56;;;;;;;2.03;1.93;;;17.90;99.90;;;;;;5010852;28;20207;-60
2022/08/11 01:30:08;;;;;;;3.03;2.07;;;17.90;99.90;;;;;;5019543;28;20191;-61
2022/08/11 01:33:01;;;;;;;2.23;1.97;;;17.80;99.90;;;;;;5020566;28;20708;-60
2022/08/11 01:36:19;;;;;;;2.90;2.10;;;17.80;99.90;;;;;;5022193;28;20180;-61
2022/08/11 01:39:22;;;;;;;2.53;2.10;;;17.70;99.90;;;;;;5005732;28;20663;-62
2022/08/11 01:45:26;;;;;;;3.17;1.87;;;17.70;99.90;;;;;;5015549;28;20298;-62
2022/08/11 01:48:03;;;;;;;2.23;2.13;;;17.70;99.90;;;;;;5005212;28;20217;-62
2022/08/11 01:50:37;;;;;;;2.13;1.93;;;17.60;99.90;;;;;;5021959;28;20211;-61
2022/08/11 01:53:14;;;;;;;2.37;2.00;;;17.60;99.90;;;;;;5005587;28;20187;-61
2022/08/11 01:55:56;;;;;;;2.60;1.90;;;17.50;99.90;;;;;;5007637;28;20223;-64
2022/08/11 01:59:02;;;;;;;2.93;2.17;;;17.50;99.90;;;;;;5012824;28;20692;-61
2022/08/11 02:01:39;;;;;;;3.07;2.00;;;17.40;99.90;;;;;;5017979;28;20281;-61
2022/08/11 02:04:30;;;;;;;2.90;2.10;;;17.40;99.90;;;;;;5017448;28;20511;-61
2022/08/11 02:07:25;;;;;;;4.00;2.20;;;17.40;99.90;;;;;;5015709;28;20393;-61
2022/08/11 02:13:22;;;;;;;2.70;2.20;;;17.40;99.90;;;;;;5016953;28;20602;-61
2022/08/11 02:16:14;;;;;;;1.87;1.77;;;17.30;99.90;;;;;;5013330;28;20278;-62
2022/08/11 02:24:46;;;;;;;3.20;2.23;;;17.20;99.90;;;;;;5025412;28;20201;-62
2022/08/11 02:27:26;;;;;;;2.63;1.83;;;17.20;99.90;;;;;;5007171;28;20238;-62
2022/08/11 02:30:14;;;;;;;3.43;1.93;;;17.20;99.90;;;;;;5024401;28;20194;-61
2022/08/11 02:36:08;;;;;;;2.00;1.80;;;17.20;99.90;;;;;;5017946;28;20557;-60
2022/08/11 02:38:50;;;;;;;2.30;2.10;;;17.10;99.90;;;;;;5011201;28;20197;-61
2022/08/11 02:44:47;;;;;;;3.17;2.03;;;17.10;99.90;;;;;;5019976;28;20245;-60
2022/08/11 02:47:40;;;;;;;3.40;2.00;;;17.00;99.90;;;;;;5006651;28;20232;-60
2022/08/11 02:50:22;;;;;;;3.00;1.97;;;17.00;99.90;;;;;;5011743;28;20203;-60
2022/08/11 02:53:12;;;;;;;3.73;2.30;;;17.00;99.90;;;;;;5012232;28;20568;-60
2022/08/11 02:56:07;;;;;;;1.90;1.80;;;16.90;99.90;;;;;;5032914;28;20199;-61
2022/08/11 03:01:55;;;;;;;2.23;1.97;;;16.80;99.90;;;;;;5021297;28;20229;-61
2022/08/11 03:04:43;;;;;;;4.57;2.50;;;16.80;99.90;;;;;;5013634;28;20190;-62
2022/08/11 03:07:26;;;;;;;2.83;2.10;;;16.80;99.90;;;;;;5014424;28;20250;-61
2022/08/11 03:10:09;;;;;;;3.47;1.90;;;16.80;99.90;;;;;;5021707;28;20199;-61
2022/08/11 03:18:56;;;;;;;4.27;2.27;;;16.70;99.90;;;;;;5018170;28;20194;-61
2022/08/11 03:21:47;;;;;;;6.63;2.53;;;16.70;99.90;;;;;;5023853;28;20195;-62
2022/08/11 03:24:45;;;;;;;4.47;2.63;;;16.60;99.90;;;;;;5007625;28;20213;-59
2022/08/11 03:27:48;;;;;;;3.47;2.60;;;16.60;99.90;;;;;;5021236;28;20223;-61
2022/08/11 03:30:25;;;;;;;3.67;2.70;;;16.60;99.90;;;;;;5016214;28;20197;-61
2022/08/11 03:36:35;;;;;;;6.03;3.10;;;16.60;99.90;;;;;;5002071;28;20213;-61
2022/08/11 03:39:04;;;;;;;3.07;2.70;;;16.60;99.90;;;;;;5018396;28;20194;-61
2022/08/11 03:42:10;;;;;;;5.80;3.80;;;16.50;99.90;;;;;;5022458;28;20677;-60
2022/08/11 03:45:04;;;;;;;3.93;3.07;;;16.50;99.90;;;;;;5010472;28;20197;-61
2022/08/11 03:48:04;;;;;;;5.37;2.63;;;16.50;99.90;;;;;;5022601;28;20227;-61
2022/08/11 03:51:07;;;;;;;3.10;2.57;;;16.50;99.90;;;;;;5015678;28;20207;-61
2022/08/11 03:54:03;;;;;;;3.33;2.40;;;16.50;99.90;;;;;;5013620;28;20206;-61
2022/08/11 03:56:50;;;;;;;2.80;2.60;;;16.50;99.90;;;;;;5033182;28;20215;-61
2022/08/11 03:59:50;;;;;;;3.30;2.43;;;16.50;99.90;;;;;;5018425;28;20190;-61
2022/08/11 04:02:49;;;;;;;3.17;2.70;;;16.50;99.90;;;;;;5005313;28;20223;-61
2022/08/11 04:05:45;;;;;;;2.80;2.60;;;16.50;99.90;;;;;;5019450;28;20626;-61
2022/08/11 04:08:38;;;;;;;2.50;2.30;;;16.50;99.90;;;;;;5015708;28;20223;-61
2022/08/11 04:11:39;;;;;;;3.03;2.60;;;16.50;99.90;;;;;;5006787;28;20195;-61
2022/08/11 04:18:10;;;;;;;4.73;2.97;;;16.50;99.90;;;;;;5022257;28;20206;-61
2022/08/11 04:20:54;;;;;;;2.90;2.47;;;16.50;99.90;;;;;;5022158;28;20190;-61
2022/08/11 04:23:48;;;;;;;4.30;2.93;;;16.60;99.90;;;;;;5011349;28;20294;-62
2022/08/11 04:26:32;;;;;;;5.90;3.30;;;16.60;99.90;;;;;;5020940;28;20187;-62
2022/08/11 04:29:31;;;;;;;8.27;2.80;;;16.60;99.90;;;;;;5015456;28;20684;-61
2022/08/11 04:32:07;;;;;;;3.30;2.80;;;16.70;99.90;;;;;;5018701;28;20197;-61
2022/08/11 04:35:12;;;;;;;3.60;3.00;;;16.70;99.90;;;;;;5009509;28;20344;-61
2022/08/11 04:37:40;;;;;;;6.00;2.90;;;16.80;99.90;;;;;;5007738;28;20244;-60
2022/08/11 04:40:33;;;;;;;7.13;2.73;;;16.80;99.90;;;;;;5032953;28;20206;-61
2022/08/11 04:43:20;;;;;;;4.53;2.67;;;16.80;99.90;;;;;;5014804;28;20202;-61
2022/08/11 04:46:12;;;;;;;4.67;2.93;;;16.90;99.90;;;;;;5010716;28;20199;-60
2022/08/11 05:01:42;;;;;;;4.37;2.87;;;17.10;99.90;;;;;;5017178;28;20242;-61
2022/08/11 05:07:13;;;;;;;4.50;2.70;;;17.20;99.90;;;;;;5010837;28;20232;-61
2022/08/11 05:09:47;;;;;;;5.87;3.33;;;17.30;99.90;;;;;;5012343;28;20189;-61
2022/08/11 05:12:30;;;;;;;4.77;3.30;;;17.40;99.90;;;;;;5013308;28;20205;-61
2022/08/11 05:35:34;;;;;;;7.43;3.37;;;18.70;99.10;;;;;;5021804;28;20636;-61
2022/08/11 05:57:35;;;;;;;4.00;3.60;;;19.60;97.10;;;;;;5027372;28;20225;-61
2022/08/11 06:00:09;;;;;;;6.17;3.40;;;19.70;96.60;;;;;;5027971;28;20322;-61
2022/08/11 06:02:43;;;;;;;5.87;3.83;;;19.80;96.60;;;;;;5028063;28;20262;-61
2022/08/11 06:05:10;;;;;;;8.90;3.70;;;19.90;96.40;;;;;;5028749;28;20182;-61
2022/08/11 06:07:35;;;;;;;6.10;3.57;;;20.00;96.10;;;;;;5028148;28;20195;-61
2022/08/11 06:10:02;;;;;;;3.40;3.10;;;20.10;96.00;;;;;;5028667;28;20178;-61
2022/08/11 06:12:31;;;;;;;7.53;3.90;;;20.20;95.80;;;;;;5028164;28;20279;-61
2022/08/11 06:15:03;;;;;;;5.73;3.40;;;20.30;95.50;;;;;;5028424;28;20222;-61
2022/08/11 06:17:31;;;;;;;6.73;4.00;;;20.40;96.20;;;;;;5028556;28;20539;-61
2022/08/11 06:20:03;;;;;;;16.43;4.40;;;20.50;95.50;;;;;;5027892;28;20176;-61
2022/08/11 06:22:30;;;;;;;5.73;3.47;;;20.60;95.60;;;;;;5027516;28;20189;-60
2022/08/11 06:24:58;;;;;;;7.13;3.70;;;20.80;95.00;;;;;;5027858;28;20622;-60
2022/08/11 06:27:26;;;;;;;4.40;4.00;;;20.90;94.20;;;;;;5027687;28;20200;-61
2022/08/11 06:29:53;;;;;;;4.60;3.70;;;21.00;94.20;;;;;;5027804;28;20183;-60
2022/08/11 06:32:22;;;;;;;4.93;3.80;;;21.10;94.10;;;;;;5027569;28;20270;-60
2022/08/11 06:35:20;;;;;;;5.90;4.00;;;21.10;93.80;;;;;;5028026;28;20178;-61
2022/08/11 06:38:00;;;;;;;9.30;3.28;;;21.20;93.10;;;;;;5019758;28;20564;-61
2022/08/11 06:40:40;;;;;;;5.17;3.77;;;21.30;93.00;;;;;;5028120;28;20638;-61
2022/08/11 06:43:25;;;;;;;3.95;3.55;;;21.40;92.60;;;;;;5027324;28;20172;-61
2022/08/11 06:46:01;;;;;;;4.47;3.90;;;21.40;92.50;;;;;;5027769;28;20163;-62
2022/08/11 06:48:30;;;;;;;4.13;3.58;;;21.60;92.30;;;;;;5027352;28;20215;-62
2022/08/11 06:51:18;;;;;;;3.77;3.27;;;21.60;92.00;;;;;;5027752;28;20196;-61
2022/08/11 06:53:55;;;;;;;3.50;3.20;;;21.70;91.90;;;;;;5026901;28;20183;-62
2022/08/11 07:02:19;;;;;;;7.32;3.42;;;22.10;91.10;;;;;;5026544;28;20606;-61
2022/08/11 07:04:55;;;;;;;4.63;3.80;;;22.20;90.70;;;;;;5027217;28;20213;-61
2022/08/11 07:16:49;;;;;;;3.47;3.17;;;22.50;88.50;;;;;;5026796;28;20214;-60
2022/08/11 07:30:57;;;;;;;6.72;3.20;;;23.10;87.00;;;;;;5027016;28;20688;-60
2022/08/11 07:33:39;;;;;;;6.32;3.53;;;23.20;85.70;;;;;;5026851;28;20290;-63
2022/08/11 07:36:06;;;;;;;4.90;3.60;;;23.30;85.10;;;;;;5026469;28;20518;-62
2022/08/11 07:38:43;;;;;;;8.20;3.65;;;23.40;84.80;;;;;;5026884;28;20184;-61
2022/08/11 07:41:14;;;;;;;3.72;2.92;;;23.40;85.00;;;;;;5026574;28;20245;-61
2022/08/11 07:43:47;;;;;;;5.60;3.40;;;23.50;84.50;;;;;;5026706;28;20182;-62
2022/08/11 07:54:27;;;;;;;4.57;3.30;;;24.00;83.60;;;;;;5046545;28;20208;-65
2022/08/11 07:56:54;;;;;;;3.97;3.60;;;24.10;82.10;;;;;;5046409;28;20644;-65
2022/08/11 08:18:40;;;;;;;3.25;2.90;;;24.60;82.80;;;;;;5026214;28;20171;-65
2022/08/11 08:21:13;;;;;;;4.68;2.88;;;24.70;80.20;;;;;;5029675;28;20214;-66
2022/08/11 08:23:46;;;;;;;4.97;3.25;;;24.80;79.00;;;;;;5031603;28;20193;-65
2022/08/11 08:31:52;;;;;;;3.40;2.70;;;24.60;77.20;;;;;;5037756;28;20185;-63
2022/08/11 08:34:18;;;;;;;8.00;3.05;;;24.60;76.90;;;;;;5045515;28;20182;-63
2022/08/11 08:36:45;;;;;;;4.60;2.90;;;24.70;85.00;;;;;;5045416;28;20181;-63
2022/08/11 08:39:13;;;;;;;6.15;2.95;;;24.90;76.50;;;;;;5045690;28;20208;-64
2022/08/11 08:41:39;;;;;;;2.72;2.45;;;25.00;84.70;;;;;;5045441;28;20188;-67
2022/08/11 08:44:11;;;;;;;4.88;2.65;;;25.20;87.40;;;;;;5045580;28;20913;-63
2022/08/11 08:46:42;;;;;;;2.90;2.58;;;25.30;82.20;;;;;;5044918;28;20307;-64
2022/08/11 08:49:12;;;;;;;2.30;2.15;;;25.30;73.30;;;;;;5045311;28;20197;-64
2022/08/11 08:51:39;;;;;;;3.50;3.08;;;25.30;73.60;;;;;;5045695;28;20175;-64
2022/08/11 08:54:15;;;;;;;4.10;2.75;;;25.40;86.10;;;;;;5045198;28;20180;-63
2022/08/11 08:56:43;;;;;;;4.22;2.67;;;25.40;73.10;;;;;;5045663;28;20178;-64
2022/08/11 08:59:11;;;;;;;5.47;2.72;;;25.50;79.20;;;;;;5041554;28;20271;-64
2022/08/11 09:01:57;;;;;;;4.15;3.22;;;25.60;72.00;;;;;;5044590;28;20228;-64
2022/08/11 09:04:24;;;;;;;2.90;2.55;;;25.70;71.70;;;;;;5045010;28;20661;-65
2022/08/11 09:06:50;;;;;;;6.10;2.47;;;25.70;72.70;;;;;;5031959;28;20514;-64
2022/08/11 09:09:16;;;;;;;4.07;2.88;;;25.80;71.30;;;;;;5025390;28;20661;-63
2022/08/11 09:11:50;;;;;;;2.35;2.10;;;25.90;69.50;;;;;;5025390;28;20183;-64
2022/08/11 09:14:59;;;;;;;4.22;2.72;;;26.10;70.90;;;;;;5035751;28;20190;-69
2022/08/11 09:17:13;;;;;;;5.35;2.70;;;26.30;71.10;;;;;;5032491;28;20184;-63
2022/08/11 09:19:39;;;;;;;5.22;2.67;;;26.40;77.10;;;;;;5038348;28;20273;-63
2022/08/11 09:27:37;;;;;;;4.82;2.60;;;26.70;70.10;;;;;;5038904;28;20285;-64
2022/08/11 09:30:04;;;;;;;2.67;2.47;;;26.80;67.70;;;;;;5035240;28;20174;-63
2022/08/11 09:32:32;;;;;;;2.65;2.40;;;26.90;67.40;;;;;;5038393;28;20185;-64
2022/08/11 09:35:01;;;;;;;3.35;3.00;;;26.90;63.50;;;;;;5039652;28;20170;-64
2022/08/11 09:40:29;;;;;;;4.13;2.60;;;27.10;66.50;;;;;;5038014;28;20189;-64
2022/08/11 09:45:54;;;;;;;3.17;2.20;;;27.30;60.60;;;;;;5028841;28;20249;-64
2022/08/11 09:48:22;;;;;;;2.53;2.17;;;27.40;60.40;;;;;;5028822;28;20700;-62
2022/08/11 09:50:51;;;;;;;2.47;2.17;;;27.40;67.80;;;;;;5029273;28;20196;-64
2022/08/11 09:53:18;;;;;;;2.42;2.22;;;27.50;64.50;;;;;;5028433;28;20560;-70
2022/08/11 09:55:45;;;;;;;2.28;2.05;;;27.70;59.80;;;;;;5032694;28;20171;-66
2022/08/11 09:58:15;;;;;;;2.47;1.88;;;27.80;63.10;;;;;;5048342;28;20205;-65
2022/08/11 10:00:42;;;;;;;2.10;2.00;;;27.80;55.70;;;;;;5048128;28;20815;-64
2022/08/11 10:03:26;;;;;;;2.00;1.85;;;27.80;58.40;;;;;;5048594;28;20617;-64
2022/08/11 10:08:42;;;;;;;2.17;2.05;;;27.90;68.20;;;;;;5034252;28;20183;-63
2022/08/11 10:11:16;;;;;;;2.47;2.30;;;28.10;58.00;;;;;;5037548;28;20249;-63
2022/08/11 10:16:40;;;;;;;3.70;2.50;;;28.20;58.60;;;;;;5034762;28;20188;-63
2022/08/11 10:19:07;;;;;;;2.15;2.00;;;28.10;53.30;;;;;;5037327;28;20225;-64
2022/08/11 10:26:48;;;;;;;3.58;2.30;;;28.10;52.90;;;;;;5038267;28;20180;-64
2022/08/11 10:27:17;;;;;;;2.60;2.10;;;28.20;55.60;;;;;;5033353;28;20260;-64
2022/08/11 10:35:15;;;;;;;2.97;2.30;;;28.40;64.40;;;;;;5027868;28;20167;-64
2022/08/11 10:37:43;;;;;;;4.80;2.90;;;28.50;59.80;;;;;;5027462;28;20175;-65
2022/08/11 10:40:14;;;;;;;4.68;2.45;;;28.60;54.80;;;;;;5028159;28;20219;-65
2022/08/11 10:48:09;;;;;;;2.58;2.38;;;28.90;52.40;;;;;;5027940;28;20222;-64
2022/08/11 10:59:03;;;;;;;2.60;2.30;;;29.00;50.80;;;;;;5004720;28;20211;-64
2022/08/11 11:01:33;;;;;;;2.53;2.35;;;29.00;49.80;;;;;;5004382;28;20805;-63
2022/08/11 11:04:10;;;;;;;4.65;2.40;;;29.20;50.80;;;;;;5006587;28;20187;-63
2022/08/11 11:07:03;;;;;;;3.05;2.13;;;29.40;51.60;;;;;;5007190;28;20654;-64
2022/08/11 11:09:38;;;;;;;2.10;2.00;;;29.70;49.50;;;;;;5007287;28;20173;-63
2022/08/11 11:17:55;;;;;;;2.88;2.03;;;30.70;59.70;;;;;;5033504;28;20696;-68
2022/08/11 11:20:38;;;;;;;4.38;2.40;;;31.20;48.40;;;;;;5027378;28;20185;-68
2022/08/11 11:23:31;;;;;;;2.80;2.60;;;31.40;46.20;;;;;;5027600;28;20214;-67
2022/08/11 11:26:24;;;;;;;4.50;2.10;;;31.60;46.20;;;;;;5027208;28;20599;-68
2022/08/11 11:29:19;;;;;;;2.50;2.30;;;31.90;44.90;;;;;;5027394;28;20187;-68
2022/08/11 11:32:08;;;;;;;4.53;2.40;;;32.10;43.80;;;;;;5027143;28;20187;-69
2022/08/11 11:34:58;;;;;;;2.45;2.20;;;32.10;43.30;;;;;;5026915;28;20176;-70
2022/08/11 11:37:24;;;;;;;2.50;2.13;;;32.00;43.00;;;;;;5025629;28;20168;-67
2022/08/11 11:39:53;;;;;;;4.00;2.03;;;32.30;46.20;;;;;;5027176;28;20215;-68
2022/08/11 11:42:20;;;;;;;2.17;1.95;;;32.70;41.70;;;;;;5026487;28;20690;-68
2022/08/11 11:44:46;;;;;;;3.33;2.55;;;32.80;42.00;;;;;;5027209;28;20183;-69
2022/08/11 11:47:13;;;;;;;3.17;2.55;;;33.10;41.30;;;;;;5026714;28;20204;-67
2022/08/11 11:49:42;;;;;;;5.10;2.20;;;33.30;40.90;;;;;;5026436;28;20202;-67
2022/08/11 11:52:18;;;;;;;3.63;2.25;;;33.60;40.00;;;;;;5026909;28;20199;-68
2022/08/11 11:54:50;;;;;;;2.35;2.15;;;33.80;40.80;;;;;;5026607;28;20186;-70
2022/08/11 12:03:09;;;;;;;2.95;2.22;;;34.80;38.30;;;;;;5024575;28;20198;-68
2022/08/11 12:05:35;;;;;;;2.13;1.92;;;34.50;37.50;;;;;;5026221;28;20192;-67
2022/08/11 12:08:14;;;;;;;3.92;2.35;;;34.80;36.50;;;;;;5022869;28;20203;-68
2022/08/11 12:13:39;;;;;;;2.38;2.28;;;35.60;35.80;;;;;;5025413;28;20186;-68
2022/08/11 12:16:06;;;;;;;2.20;2.10;;;36.00;35.10;;;;;;5025477;28;20282;-68
2022/08/11 12:18:33;;;;;;;2.47;2.38;;;35.90;35.40;;;;;;5025474;28;20179;-68
2022/08/11 12:21:01;;;;;;;2.78;2.28;;;35.80;34.60;;;;;;5026106;28;20187;-68
2022/08/11 12:29:00;;;;;;;3.05;2.28;;;36.40;34.00;;;;;;5025619;28;20253;-69
2022/08/11 12:31:28;;;;;;;3.97;2.10;;;36.90;32.90;;;;;;5025086;28;20179;-68
2022/08/11 12:34:00;;;;;;;2.00;1.90;;;37.40;32.60;;;;;;5024786;28;20176;-67
2022/08/11 12:36:26;;;;;;;2.85;1.95;;;38.30;33.10;;;;;;5025027;28;20523;-68
2022/08/11 12:38:53;;;;;;;3.15;2.40;;;38.90;30.30;;;;;;5025403;28;20929;-68
2022/08/11 12:46:58;;;;;;;5.03;2.50;;;38.70;29.80;;;;;;5025003;28;20565;-68
2022/08/11 12:52:19;;;;;;;3.53;2.00;;;38.20;29.50;;;;;;5025034;28;20182;-69
2022/08/11 12:54:57;;;;;;;2.28;2.10;;;37.50;30.40;;;;;;5022906;28;20203;-69
2022/08/11 13:05:57;;;;;;;2.63;2.13;;;39.40;28.60;;;;;;5003205;28;20724;-69
2022/08/11 13:08:25;;;;;;;3.60;2.60;;;39.50;28.10;;;;;;5024472;28;20211;-69
2022/08/11 13:13:41;;;;;;;2.50;2.20;;;40.60;27.40;;;;;;5016737;28;20198;-69
2022/08/11 13:16:07;;;;;;;2.28;2.10;;;40.80;27.40;;;;;;5011514;28;20202;-69
2022/08/11 13:18:33;;;;;;;2.45;2.15;;;40.20;26.90;;;;;;5040059;28;20325;-69
2022/08/11 13:20:59;;;;;;;4.55;2.33;;;40.20;26.80;;;;;;5016344;28;20708;-69
2022/08/11 13:23:26;;;;;;;1.95;1.85;;;39.70;26.30;;;;;;5027126;28;20199;-69
2022/08/11 13:25:53;;;;;;;2.60;2.35;;;39.80;27.20;;;;;;5016001;28;20764;-69
2022/08/11 13:28:21;;;;;;;2.55;2.00;;;40.20;27.00;;;;;;5024060;28;20219;-69
2022/08/11 13:33:37;;;;;;;3.88;2.15;;;40.80;26.20;;;;;;5021385;28;20230;-69
2022/08/11 13:36:04;;;;;;;2.75;2.35;;;41.30;26.20;;;;;;5014109;28;20204;-69
2022/08/11 13:38:31;;;;;;;2.55;2.35;;;42.20;25.50;;;;;;5021223;28;20199;-69
2022/08/11 13:40:57;;;;;;;3.17;2.50;;;42.70;24.70;;;;;;5015394;28;20210;-68
2022/08/11 13:43:23;;;;;;;3.20;2.53;;;42.50;25.10;;;;;;5023336;28;20195;-68
2022/08/11 13:45:51;;;;;;;2.40;2.20;;;42.80;24.90;;;;;;5018576;28;20204;-68
2022/08/11 13:48:17;;;;;;;2.47;2.28;;;43.00;25.20;;;;;;5029742;28;20261;-69
2022/08/11 13:53:29;;;;;;;10.02;2.65;;;42.10;24.60;;;;;;5016605;28;20257;-68
2022/08/11 13:55:58;;;;;;;2.78;2.38;;;42.10;25.10;;;;;;5018170;28;20211;-68
2022/08/11 13:58:26;;;;;;;2.67;2.10;;;41.70;25.20;;;;;;5029695;28;20226;-69
2022/08/11 14:00:53;;;;;;;2.50;1.85;;;41.70;24.80;;;;;;5031471;28;20681;-68
2022/08/11 14:03:26;;;;;;;2.15;1.90;;;41.50;24.80;;;;;;5029008;28;20195;-68
2022/08/11 14:05:55;;;;;;;5.25;2.40;;;41.80;24.70;;;;;;5017289;28;20300;-69
2022/08/11 14:08:25;;;;;;;2.03;1.92;;;42.10;24.50;;;;;;5024494;28;20195;-67
2022/08/11 14:13:42;;;;;;;2.38;2.17;;;42.80;24.20;;;;;;5030246;28;20245;-68
2022/08/11 14:16:14;;;;;;;2.28;2.17;;;42.60;24.00;;;;;;5028588;28;20615;-68
2022/08/11 14:18:44;;;;;;;2.58;2.05;;;42.70;23.80;;;;;;5020165;28;20196;-68
2022/08/11 14:23:59;;;;;;;3.15;1.98;;;42.70;24.00;;;;;;5032621;28;20203;-68
2022/08/11 14:26:26;;;;;;;3.03;1.90;;;43.00;23.40;;;;;;5017155;28;20215;-68
2022/08/11 14:29:08;;;;;;;3.13;2.20;;;43.00;23.30;;;;;;5037160;28;20187;-69
2022/08/11 14:31:37;;;;;;;2.90;2.30;;;43.30;23.20;;;;;;5011677;28;20195;-69
2022/08/11 14:34:09;;;;;;;2.75;1.95;;;43.40;23.60;;;;;;5035442;28;20658;-69
2022/08/11 14:36:41;;;;;;;3.90;1.98;;;43.60;22.80;;;;;;5011551;28;20250;-69
2022/08/11 14:39:16;;;;;;;2.17;1.90;;;43.90;22.50;;;;;;5011920;28;20184;-69
2022/08/11 14:47:23;;;;;;;2.40;2.20;;;43.40;22.70;;;;;;5019360;28;20189;-69
2022/08/11 14:49:51;;;;;;;5.50;2.38;;;43.30;22.30;;;;;;5034931;28;20627;-69
2022/08/11 14:52:19;;;;;;;2.97;2.08;;;43.20;22.80;;;;;;5018235;28;20192;-69
2022/08/11 14:57:39;;;;;;;2.00;1.90;;;43.20;22.30;;;;;;5017526;28;20257;-68
2022/08/11 15:00:08;;;;;;;1.83;1.73;;;43.10;22.10;;;;;;5037841;28;20215;-69
2022/08/11 15:05:26;;;;;;;1.85;1.75;;;43.60;22.40;;;;;;5005141;28;20265;-68
2022/08/11 15:07:55;;;;;;;1.80;1.70;;;43.50;22.00;;;;;;5014836;28;20662;-68
2022/08/11 15:10:22;;;;;;;1.77;1.67;;;43.00;21.60;;;;;;5032368;28;20203;-69
2022/08/11 15:12:48;;;;;;;1.73;1.63;;;43.20;21.70;;;;;;5025900;28;20192;-68
2022/08/11 15:18:03;;;;;;;1.73;1.63;;;43.90;21.50;;;;;;5032858;28;20798;-69
2022/08/11 15:37:24;;;;;;;4.82;1.70;;;42.20;21.60;;;;;;5030335;28;20724;-69
2022/08/11 15:37:26;;;;;;;1.63;1.52;;;43.40;21.40;;;;;;5035126;28;20264;-69
2022/08/11 15:45:47;;;;;;;1.58;1.48;;;43.60;21.20;;;;;;5021975;28;20226;-69
2022/08/11 15:48:20;;;;;;;1.88;1.70;;;44.00;20.70;;;;;;5015058;28;20176;-69
2022/08/11 15:50:51;;;;;;;2.08;1.50;;;43.70;20.60;;;;;;5014296;28;20207;-70
2022/08/11 15:53:27;;;;;;;1.65;1.55;;;43.20;20.50;;;;;;5015596;28;20187;-71
2022/08/11 15:55:55;;;;;;;1.50;1.35;;;41.80;21.10;;;;;;5013711;28;20212;-67
2022/08/11 16:04:44;;;;;;;3.38;1.63;;;42.00;21.20;;;;;;5020004;28;20552;-68
2022/08/11 16:07:13;;;;;;;1.20;1.20;;;42.60;21.30;;;;;;5013222;28;20225;-68
2022/08/11 16:09:50;;;;;;;3.15;1.50;;;43.20;21.10;;;;;;5036579;28;20210;-68
2022/08/11 16:12:22;;;;;;;3.80;1.90;;;43.70;20.90;;;;;;5003535;28;20222;-67
2022/08/11 16:17:43;;;;;;;2.60;1.77;;;42.40;21.10;;;;;;5010143;28;20661;-68
2022/08/11 16:20:11;;;;;;;3.10;2.20;;;41.70;21.40;;;;;;5004154;28;20192;-68
2022/08/11 16:22:45;;;;;;;2.92;1.65;;;41.30;21.90;;;;;;5012534;28;20227;-68
2022/08/11 16:25:14;;;;;;;1.45;1.35;;;41.40;21.60;;;;;;5015632;28;20244;-68
2022/08/11 16:27:43;;;;;;;1.52;1.40;;;41.60;21.30;;;;;;5019668;28;20733;-68
2022/08/11 16:30:10;;;;;;;1.80;1.70;;;41.20;21.30;;;;;;5036225;28;20264;-68
2022/08/11 16:32:39;;;;;;;2.00;1.90;;;41.50;21.20;;;;;;5025452;28;20188;-68
2022/08/11 16:40:42;;;;;;;1.40;1.40;;;41.40;21.10;;;;;;5019887;28;20586;-68
2022/08/11 16:48:46;;;;;;;1.70;1.33;;;38.80;22.10;;;;;;5004993;28;20635;-67
2022/08/11 16:51:13;;;;;;;1.30;1.20;;;39.20;22.30;;;;;;5032085;28;20203;-68
2022/08/11 16:53:41;;;;;;;1.40;1.30;;;39.90;22.70;;;;;;5042514;28;20623;-68
2022/08/11 16:56:10;;;;;;;3.03;1.52;;;40.40;22.40;;;;;;5025287;28;20204;-68
2022/08/11 17:01:24;;;;;;;1.60;1.50;;;42.00;21.60;;;;;;5011205;28;20294;-68
2022/08/11 17:16:05;;;;;;;2.60;2.40;;;36.40;22.80;;;;;;5015809;28;20200;-68
2022/08/11 17:17:57;;;;;;;1.88;1.77;;;35.30;23.60;;;;;;5021854;28;20223;-68
2022/08/11 17:20:24;;;;;;;1.83;1.73;;;34.50;24.50;;;;;;5025603;28;20204;-68
2022/08/11 17:25:37;;;;;;;2.28;1.60;;;33.60;25.40;;;;;;5014578;28;20211;-68
2022/08/11 17:28:04;;;;;;;2.15;1.92;;;33.10;25.60;;;;;;5015484;28;20188;-67
2022/08/11 17:36:02;;;;;;;2.83;1.80;;;32.00;26.40;;;;;;5011147;28;20218;-68
2022/08/11 17:38:28;;;;;;;2.88;1.38;;;31.80;25.90;;;;;;5018326;28;20571;-68
2022/08/11 17:49:15;;;;;;;3.90;1.73;;;31.00;26.90;;;;;;5024325;28;20218;-67
2022/08/11 18:00:03;;;;;;;1.30;1.20;;;30.60;27.20;;;;;;5024100;28;20834;-69
2022/08/11 18:05:30;;;;;;;4.32;1.92;;;30.30;27.60;;;;;;5015970;28;20242;-75
